Time;durP1;ratioP1;P1;durP2;ratioP2;P2;SDS_P1;SDS_P2;PMS_P1;PMS_P2;Temp;Humidity;BMP_temperature;BMP_pressure;BME280_temperature;BME280_humidity;BME280_pressure;Samples;Min_cycle;Max_cycle;Signal;HPM_P1;HPM_P2
2023/12/09 00:02:23;;;;;;;19.43;6.47;;;;;;;5.20;100.00;96099.47;5014401;28;20215;-68
2023/12/09 00:04:50;;;;;;;17.47;6.30;;;;;;;5.06;100.00;96101.78;5015018;28;20231;-69
2023/12/09 00:07:17;;;;;;;19.70;7.00;;;;;;;5.08;100.00;96095.44;5013733;28;20212;-68
2023/12/09 00:09:43;;;;;;;18.93;7.90;;;;;;;4.97;100.00;96098.25;5015092;28;20224;-69
2023/12/09 00:12:10;;;;;;;18.87;7.00;;;;;;;5.04;100.00;96103.69;5018829;28;20214;-69
2023/12/09 00:14:38;;;;;;;21.13;7.80;;;;;;;5.22;100.00;96096.72;5019461;28;20205;-69
2023/12/09 00:17:04;;;;;;;20.40;8.87;;;;;;;5.11;100.00;96102.97;5020818;28;20220;-68
2023/12/09 00:19:31;;;;;;;17.67;6.13;;;;;;;5.17;100.00;96093.75;5021307;28;20202;-69
2023/12/09 00:21:57;;;;;;;17.30;6.37;;;;;;;5.13;100.00;96103.66;5020598;28;20212;-69
2023/12/09 00:24:24;;;;;;;21.33;8.10;;;;;;;5.10;100.00;96103.13;5019001;28;20658;-68
2023/12/09 00:26:50;;;;;;;20.20;7.10;;;;;;;5.16;100.00;96102.53;5022375;28;20216;-68
2023/12/09 00:29:17;;;;;;;18.67;6.10;;;;;;;5.16;100.00;96097.31;5020469;28;20198;-69
2023/12/09 00:31:45;;;;;;;19.47;6.87;;;;;;;5.31;100.00;96106.25;5020469;28;20217;-69
2023/12/09 00:34:11;;;;;;;14.60;6.17;;;;;;;5.11;100.00;96102.97;5021401;28;20205;-68
2023/12/09 00:36:38;;;;;;;15.93;6.93;;;;;;;5.08;100.00;96105.88;5022662;28;20202;-68
2023/12/09 00:39:05;;;;;;;17.93;6.70;;;;;;;5.15;100.00;96112.16;5020728;28;20210;-68
2023/12/09 00:41:31;;;;;;;15.03;5.83;;;;;;;5.16;100.00;96108.56;5022471;28;20248;-68
2023/12/09 00:43:58;;;;;;;16.40;6.77;;;;;;;4.90;100.00;96104.19;5024209;28;20713;-68
2023/12/09 00:46:24;;;;;;;18.73;7.67;;;;;;;5.03;100.00;96109.91;5022451;28;20208;-68
2023/12/09 00:48:51;;;;;;;16.37;5.87;;;;;;;5.17;100.00;96110.22;5023004;28;20212;-69
2023/12/09 00:51:18;;;;;;;14.40;6.10;;;;;;;5.06;100.00;96115.66;5022719;28;20213;-68
2023/12/09 00:53:44;;;;;;;13.67;5.67;;;;;;;5.09;100.00;96106.69;5023143;28;20209;-68
2023/12/09 00:56:11;;;;;;;16.63;6.77;;;;;;;4.82;100.00;96118.97;5020877;28;20206;-68
2023/12/09 00:58:37;;;;;;;20.67;7.53;;;;;;;5.10;100.00;96110.97;5021590;28;20210;-68
2023/12/09 01:01:05;;;;;;;16.30;6.27;;;;;;;5.22;100.00;96108.00;5020976;28;20238;-68
2023/12/09 01:03:31;;;;;;;19.50;6.37;;;;;;;5.09;100.00;96110.16;5018920;28;20202;-68
2023/12/09 01:05:59;;;;;;;17.47;6.73;;;;;;;5.17;100.00;96114.63;5019519;28;20229;-68
2023/12/09 01:08:28;;;;;;;15.50;5.93;;;;;;;5.01;100.00;96120.47;5023499;28;20209;-68
2023/12/09 01:10:54;;;;;;;16.97;6.80;;;;;;;5.07;100.00;96125.13;5019066;28;20419;-68
2023/12/09 01:13:21;;;;;;;18.07;6.37;;;;;;;5.05;100.00;96121.84;5020311;28;20213;-68
2023/12/09 01:15:47;;;;;;;15.97;7.33;;;;;;;5.12;100.00;96117.69;5019394;28;20208;-68
2023/12/09 01:18:14;;;;;;;21.73;7.03;;;;;;;5.11;100.00;96117.81;5019690;28;20211;-68
2023/12/09 01:20:41;;;;;;;17.13;6.53;;;;;;;4.93;100.00;96117.78;5021796;28;20240;-69
2023/12/09 01:23:08;;;;;;;17.47;5.73;;;;;;;5.15;100.00;96132.22;5021511;28;20212;-68
2023/12/09 01:25:35;;;;;;;19.93;7.40;;;;;;;5.14;100.00;96128.81;5022450;28;20232;-68
2023/12/09 01:28:01;;;;;;;14.50;6.50;;;;;;;5.17;100.00;96133.72;5021114;28;20208;-68
2023/12/09 01:30:28;;;;;;;16.10;6.87;;;;;;;5.14;100.00;96134.03;5022828;28;20929;-68
2023/12/09 01:32:55;;;;;;;14.90;6.67;;;;;;;5.21;100.00;96142.09;5024019;28;20658;-68
2023/12/09 01:35:21;;;;;;;20.83;7.40;;;;;;;5.21;100.00;96139.50;5023239;28;20215;-68
2023/12/09 01:37:48;;;;;;;16.77;6.00;;;;;;;5.22;100.00;96143.72;5018318;28;20213;-68
2023/12/09 01:40:16;;;;;;;16.70;6.47;;;;;;;5.35;100.00;96139.81;5019886;28;20221;-68
2023/12/09 01:42:43;;;;;;;17.00;5.63;;;;;;;5.29;100.00;96134.34;5021937;28;20206;-68
2023/12/09 01:45:10;;;;;;;14.40;6.20;;;;;;;5.31;100.00;96138.47;5016445;28;20602;-68
2023/12/09 01:47:39;;;;;;;19.27;6.47;;;;;;;5.33;100.00;96139.13;5021211;28;20316;-69
2023/12/09 01:50:07;;;;;;;12.77;5.13;;;;;;;5.39;100.00;96135.09;5019976;28;20226;-68
2023/12/09 01:52:35;;;;;;;22.10;7.33;;;;;;;5.30;100.00;96142.03;5021436;28;20212;-69
2023/12/09 01:55:02;;;;;;;16.90;5.83;;;;;;;5.30;100.00;96136.00;5020973;28;20657;-69
2023/12/09 01:57:30;;;;;;;19.13;6.23;;;;;;;5.43;100.00;96135.50;5020504;28;20198;-69
2023/12/09 01:59:57;;;;;;;15.63;5.80;;;;;;;5.09;100.00;96141.50;5019467;28;20239;-68
2023/12/09 02:02:23;;;;;;;12.17;5.17;;;;;;;5.26;100.00;96138.06;5022930;28;20208;-68
2023/12/09 02:04:51;;;;;;;21.13;7.33;;;;;;;5.31;100.00;96148.91;5018522;28;20228;-69
2023/12/09 02:07:17;;;;;;;18.80;6.50;;;;;;;5.38;100.00;96155.16;5019384;28;20202;-68
2023/12/09 02:09:44;;;;;;;17.17;6.17;;;;;;;5.39;100.00;96159.44;5022871;28;20229;-68
2023/12/09 02:12:18;;;;;;;14.73;5.80;;;;;;;5.54;100.00;96161.38;5020583;28;20213;-68
2023/12/09 02:14:55;;;;;;;16.90;6.37;;;;;;;5.48;100.00;96158.53;5019578;28;20660;-68
2023/12/09 02:17:27;;;;;;;20.13;6.33;;;;;;;5.48;100.00;96161.97;5018104;28;20202;-68
2023/12/09 02:19:54;;;;;;;14.47;6.30;;;;;;;5.29;100.00;96163.88;5018933;28;20244;-68
2023/12/09 02:22:20;;;;;;;18.80;5.70;;;;;;;5.19;100.00;96170.94;5018763;28;20216;-68
2023/12/09 02:24:48;;;;;;;16.57;5.20;;;;;;;5.36;100.00;96171.97;5019656;28;20236;-68
2023/12/09 02:27:19;;;;;;;17.07;5.63;;;;;;;5.28;100.00;96175.31;5021714;28;20225;-68
2023/12/09 02:29:54;;;;;;;27.03;5.40;;;;;;;5.40;100.00;96171.53;5022102;28;20255;-68
2023/12/09 02:32:24;;;;;;;18.20;7.13;;;;;;;5.38;100.00;96167.44;5018075;28;20202;-68
2023/12/09 02:34:52;;;;;;;13.97;5.73;;;;;;;5.37;100.00;96160.53;5020785;28;20209;-68
2023/12/09 02:37:20;;;;;;;16.70;6.00;;;;;;;5.25;100.00;96164.34;5020658;28;20206;-69
2023/12/09 02:39:49;;;;;;;19.73;7.10;;;;;;;5.27;100.00;96158.00;5017420;28;20234;-69
2023/12/09 02:42:16;;;;;;;17.23;6.40;;;;;;;5.17;100.00;96157.25;5019387;28;20209;-69
2023/12/09 02:44:43;;;;;;;13.60;6.20;;;;;;;5.23;100.00;96167.09;5020280;28;20412;-69
2023/12/09 02:47:12;;;;;;;14.83;6.50;;;;;;;5.21;100.00;96169.03;5019186;28;20207;-69
2023/12/09 02:49:39;;;;;;;17.37;6.23;;;;;;;5.08;100.00;96175.59;5019203;28;20221;-69
2023/12/09 02:52:05;;;;;;;15.67;6.17;;;;;;;5.09;100.00;96180.66;5020857;28;20212;-69
2023/12/09 02:54:32;;;;;;;13.33;6.63;;;;;;;5.14;100.00;96183.66;5021448;28;20201;-68
2023/12/09 02:57:00;;;;;;;15.67;5.43;;;;;;;5.17;100.00;96175.53;5017977;28;20212;-69
2023/12/09 02:59:28;;;;;;;19.50;6.40;;;;;;;5.23;100.00;96181.94;5018725;28;20210;-69
2023/12/09 03:01:55;;;;;;;13.37;5.70;;;;;;;5.23;100.00;96185.41;5021674;28;20206;-68
2023/12/09 03:04:21;;;;;;;13.33;5.83;;;;;;;5.22;100.00;96191.56;5022911;28;20206;-69
2023/12/09 03:06:48;;;;;;;15.43;6.03;;;;;;;4.96;100.00;96193.22;5020795;28;20202;-69
2023/12/09 03:09:14;;;;;;;13.13;5.33;;;;;;;5.03;100.00;96176.00;5021948;28;20214;-69
2023/12/09 03:11:41;;;;;;;17.03;6.27;;;;;;;5.16;100.00;96171.25;5020014;28;20206;-68
2023/12/09 03:14:09;;;;;;;17.90;6.03;;;;;;;5.29;100.00;96161.28;5021688;28;20220;-69
2023/12/09 03:16:37;;;;;;;16.43;6.63;;;;;;;5.18;100.00;96150.22;5021038;28;20198;-68
2023/12/09 03:19:04;;;;;;;13.17;5.20;;;;;;;5.10;100.00;96142.28;5019786;28;20223;-69
2023/12/09 03:21:30;;;;;;;13.03;4.97;;;;;;;5.17;100.00;96138.16;5021151;28;20276;-69
2023/12/09 03:23:57;;;;;;;12.13;5.10;;;;;;;5.14;100.00;96135.81;5023059;28;20217;-69
2023/12/09 03:26:25;;;;;;;17.87;6.67;;;;;;;5.27;100.00;96144.94;5021742;28;20232;-69
2023/12/09 03:28:52;;;;;;;17.67;6.27;;;;;;;5.00;100.00;96146.75;5023053;28;20210;-68
2023/12/09 03:31:21;;;;;;;16.60;6.00;;;;;;;5.06;100.00;96143.56;5024940;28;20236;-69
2023/12/09 03:33:47;;;;;;;15.67;4.80;;;;;;;5.08;100.00;96146.84;5023543;28;21133;-69
2023/12/09 03:36:14;;;;;;;13.97;5.40;;;;;;;5.21;100.00;96140.31;5022104;28;20843;-68
2023/12/09 03:38:41;;;;;;;15.57;5.80;;;;;;;5.18;100.00;96140.59;5017024;28;20214;-68
2023/12/09 03:41:08;;;;;;;21.93;6.63;;;;;;;4.85;100.00;96137.78;5013940;28;20226;-68
2023/12/09 03:43:35;;;;;;;18.30;6.17;;;;;;;4.88;100.00;96127.84;5017166;28;20919;-68
2023/12/09 03:46:02;;;;;;;18.63;5.93;;;;;;;5.06;100.00;96128.69;5017637;28;20230;-68
2023/12/09 03:48:30;;;;;;;23.57;6.37;;;;;;;5.17;100.00;96123.28;5017628;28;20209;-68
2023/12/09 03:50:56;;;;;;;20.73;6.20;;;;;;;5.08;100.00;96121.56;5020893;28;20714;-68
2023/12/09 03:53:23;;;;;;;22.00;6.93;;;;;;;4.92;100.00;96116.13;5016952;28;20205;-68
2023/12/09 03:55:50;;;;;;;17.93;6.10;;;;;;;5.01;100.00;96110.03;5016369;28;20206;-68
2023/12/09 03:58:17;;;;;;;20.63;6.77;;;;;;;5.04;100.00;96109.75;5018498;28;20640;-68
2023/12/09 04:00:44;;;;;;;19.30;7.10;;;;;;;5.17;100.00;96114.63;5015921;28;20217;-68
2023/12/09 04:03:11;;;;;;;20.07;5.33;;;;;;;5.06;100.00;96107.81;5021874;28;20917;-68
2023/12/09 04:05:39;;;;;;;14.67;5.30;;;;;;;5.31;100.00;96107.09;5016327;28;20237;-68
2023/12/09 04:08:05;;;;;;;17.80;6.17;;;;;;;5.21;100.00;96110.75;5021014;28;20210;-68
2023/12/09 04:10:32;;;;;;;24.27;6.57;;;;;;;4.96;100.00;96117.50;5021255;28;20225;-68
2023/12/09 04:12:58;;;;;;;19.63;7.30;;;;;;;5.18;100.00;96117.09;5018310;28;20568;-68
2023/12/09 04:15:25;;;;;;;18.57;6.03;;;;;;;5.07;100.00;96119.09;5016008;28;20207;-68
2023/12/09 04:17:52;;;;;;;24.10;6.73;;;;;;;5.09;100.00;96124.97;5015830;28;20949;-68
2023/12/09 04:20:18;;;;;;;20.73;6.70;;;;;;;5.15;100.00;96122.59;5018351;28;20582;-68
2023/12/09 04:22:47;;;;;;;23.57;6.30;;;;;;;5.28;100.00;96123.06;5017241;28;20221;-68
2023/12/09 04:25:13;;;;;;;22.13;5.37;;;;;;;5.04;100.00;96115.00;5016944;28;20226;-68
2023/12/09 04:27:40;;;;;;;19.63;5.93;;;;;;;5.06;100.00;96107.81;5018398;28;20971;-68
2023/12/09 04:30:08;;;;;;;16.83;5.37;;;;;;;5.20;100.00;96103.88;5020797;28;20597;-68
2023/12/09 04:32:35;;;;;;;19.03;5.20;;;;;;;5.01;100.00;96111.84;5017655;28;20213;-68
2023/12/09 04:35:01;;;;;;;13.43;5.60;;;;;;;5.06;100.00;96102.59;5015056;28;20235;-68
2023/12/09 04:37:28;;;;;;;19.20;5.97;;;;;;;5.15;100.00;96109.53;5017457;28;20202;-68
2023/12/09 04:39:56;;;;;;;16.07;5.33;;;;;;;5.11;100.00;96108.19;5018944;28;20248;-68
2023/12/09 04:42:22;;;;;;;17.67;5.90;;;;;;;5.06;100.00;96112.22;5015874;28;20991;-68
2023/12/09 04:44:49;;;;;;;13.93;4.23;;;;;;;5.25;100.00;96118.13;5017870;28;20618;-68
2023/12/09 04:47:16;;;;;;;17.13;5.43;;;;;;;5.10;100.00;96114.38;5017389;28;20203;-68
2023/12/09 04:49:43;;;;;;;12.97;5.03;;;;;;;5.02;100.00;96111.69;5016749;28;20578;-68
2023/12/09 04:52:09;;;;;;;15.40;4.13;;;;;;;4.85;100.00;96102.03;5016725;28;20675;-68
2023/12/09 04:54:36;;;;;;;17.47;5.20;;;;;;;5.03;100.00;96099.47;5017617;28;20238;-68
2023/12/09 04:57:04;;;;;;;22.47;5.83;;;;;;;5.10;100.00;96103.94;5016709;28;20213;-68
2023/12/09 04:59:31;;;;;;;18.53;5.20;;;;;;;5.21;100.00;96106.34;5018071;28;20212;-68
2023/12/09 05:01:58;;;;;;;13.60;4.07;;;;;;;5.17;100.00;96117.25;5020026;28;20688;-68
2023/12/09 05:04:24;;;;;;;18.57;4.57;;;;;;;5.15;100.00;96121.78;5018406;28;20706;-68
2023/12/09 05:06:51;;;;;;;15.27;5.17;;;;;;;4.99;100.00;96121.59;5021271;28;20232;-68
2023/12/09 05:09:17;;;;;;;20.50;5.13;;;;;;;5.18;100.00;96130.16;5021371;28;20296;-68
2023/12/09 05:11:44;;;;;;;16.90;5.43;;;;;;;5.16;100.00;96129.47;5016497;28;20654;-68
2023/12/09 05:14:12;;;;;;;18.43;4.30;;;;;;;5.37;100.00;96135.22;5020387;28;20206;-68
2023/12/09 05:16:38;;;;;;;19.47;6.13;;;;;;;5.13;100.00;96140.22;5018092;28;20196;-68
2023/12/09 05:19:06;;;;;;;18.30;4.87;;;;;;;5.44;100.00;96136.28;5019485;28;20205;-68
2023/12/09 05:21:33;;;;;;;14.30;5.30;;;;;;;5.15;100.00;96127.81;5015982;28;20225;-68
2023/12/09 05:23:59;;;;;;;22.27;5.23;;;;;;;5.20;100.00;96124.78;5016943;28;20212;-68
2023/12/09 05:26:27;;;;;;;14.00;4.53;;;;;;;5.31;100.00;96120.16;5019172;28;20231;-68
2023/12/09 05:28:54;;;;;;;21.10;6.07;;;;;;;5.25;100.00;96122.56;5018289;28;20205;-68
2023/12/09 05:31:23;;;;;;;15.30;5.37;;;;;;;5.10;100.00;96122.22;5020110;28;20601;-68
2023/12/09 05:33:50;;;;;;;11.63;3.97;;;;;;;5.13;100.00;96123.72;5018527;28;20221;-68
2023/12/09 05:36:16;;;;;;;16.20;5.57;;;;;;;5.19;100.00;96123.94;5021374;28;20198;-68
2023/12/09 05:38:43;;;;;;;10.93;5.00;;;;;;;5.10;100.00;96114.38;5022836;28;20206;-68
2023/12/09 05:41:10;;;;;;;15.40;3.70;;;;;;;5.17;100.00;96122.47;5023120;28;20805;-69
2023/12/09 05:43:37;;;;;;;13.17;3.77;;;;;;;5.29;100.00;96121.28;5020363;28;20212;-68
2023/12/09 05:46:04;;;;;;;11.57;3.63;;;;;;;5.37;100.00;96113.53;5020810;28;20232;-68
2023/12/09 05:48:34;;;;;;;13.20;3.87;;;;;;;5.46;100.00;96119.50;5019323;28;20245;-68
2023/12/09 05:51:00;;;;;;;13.37;4.07;;;;;;;5.23;100.00;96116.63;5019075;28;20224;-68
2023/12/09 05:53:27;;;;;;;12.43;4.00;;;;;;;5.21;100.00;96106.34;5019640;28;20215;-68
2023/12/09 05:55:53;;;;;;;12.83;3.67;;;;;;;5.36;100.00;96104.88;5018995;28;20206;-68
2023/12/09 05:58:20;;;;;;;16.70;5.33;;;;;;;5.39;100.00;96111.59;5020224;28;20210;-68
2023/12/09 06:00:46;;;;;;;13.73;4.40;;;;;;;5.47;100.00;96107.25;5021014;28;20236;-68
2023/12/09 06:03:13;;;;;;;14.70;4.73;;;;;;;5.33;100.00;96105.16;5020559;28;20206;-68
2023/12/09 06:05:41;;;;;;;12.40;4.63;;;;;;;5.38;100.00;96107.34;5019475;28;20228;-68
2023/12/09 06:08:08;;;;;;;21.63;6.77;;;;;;;5.37;100.00;96116.13;5018083;28;20298;-68
2023/12/09 06:10:34;;;;;;;20.10;6.33;;;;;;;5.21;100.00;96118.59;5017026;28;20332;-68
2023/12/09 06:13:01;;;;;;;31.13;8.57;;;;;;;5.38;100.00;96107.34;5018285;28;20217;-68
2023/12/09 06:15:27;;;;;;;33.47;11.10;;;;;;;5.39;100.00;96104.56;5018472;28;20858;-68
2023/12/09 06:17:54;;;;;;;49.93;14.00;;;;;;;5.27;100.00;96105.75;5020194;28;20221;-68
2023/12/09 06:20:21;;;;;;;47.50;12.93;;;;;;;5.28;100.00;96099.53;5019905;28;20721;-68
2023/12/09 06:22:49;;;;;;;40.53;13.53;;;;;;;5.40;100.00;96101.00;5017717;28;20735;-68
2023/12/09 06:25:15;;;;;;;34.93;10.70;;;;;;;5.39;100.00;96106.38;5019834;28;20217;-68
2023/12/09 06:27:42;;;;;;;32.77;10.63;;;;;;;5.45;100.00;96103.97;5017763;28;20358;-69
2023/12/09 06:30:10;;;;;;;24.77;9.47;;;;;;;5.59;100.00;96103.47;5026232;28;20225;-69
2023/12/09 06:32:36;;;;;;;21.43;6.20;;;;;;;5.40;100.00;96105.38;5022427;28;20208;-68
2023/12/09 06:35:03;;;;;;;21.87;7.20;;;;;;;5.42;100.00;96099.03;5023864;28;20209;-68
2023/12/09 06:37:29;;;;;;;17.77;6.67;;;;;;;5.38;100.00;96104.72;5023416;28;20235;-69
2023/12/09 06:39:57;;;;;;;22.30;6.70;;;;;;;5.55;100.00;96104.72;5029693;28;20229;-69
2023/12/09 06:42:24;;;;;;;21.83;7.13;;;;;;;5.49;100.00;96098.28;5026755;28;20225;-69
2023/12/09 06:44:50;;;;;;;18.03;5.97;;;;;;;5.49;100.00;96102.72;5020358;28;20213;-68
2023/12/09 06:47:17;;;;;;;24.83;7.03;;;;;;;5.46;100.00;96105.63;5019526;28;20577;-69
2023/12/09 06:49:43;;;;;;;21.73;7.00;;;;;;;5.50;100.00;96101.75;5017713;28;20217;-69
2023/12/09 06:52:10;;;;;;;18.00;6.57;;;;;;;5.50;100.00;96096.53;5029500;28;20225;-69
2023/12/09 06:54:36;;;;;;;21.90;6.13;;;;;;;5.45;100.00;96098.75;5025567;28;20918;-69
2023/12/09 06:57:04;;;;;;;22.10;6.80;;;;;;;5.55;100.00;96094.28;5027259;28;20198;-68
2023/12/09 06:59:31;;;;;;;22.53;6.10;;;;;;;5.42;100.00;96085.97;5024888;28;20213;-68
2023/12/09 07:01:58;;;;;;;19.67;5.60;;;;;;;5.45;100.00;96083.06;5017954;28;20212;-70
2023/12/09 07:04:24;;;;;;;19.77;6.40;;;;;;;5.44;100.00;96092.69;5000271;28;20213;-68
2023/12/09 07:06:51;;;;;;;30.70;8.43;;;;;;;5.45;100.00;96090.91;5007803;28;20236;-69
2023/12/09 07:09:17;;;;;;;34.73;12.47;;;;;;;5.51;100.00;96087.69;5019054;28;20202;-68
2023/12/09 07:11:44;;;;;;;22.60;7.83;;;;;;;5.46;100.00;96087.34;5027113;28;20213;-68
2023/12/09 07:14:15;;;;;;;20.90;7.67;;;;;;;5.67;100.00;96095.69;5021567;28;20545;-69
2023/12/09 07:16:40;;;;;;;18.97;6.83;;;;;;;5.47;100.00;96097.63;5014918;28;20198;-69
2023/12/09 07:19:07;;;;;;;21.00;6.73;;;;;;;5.39;100.00;96082.84;4997503;28;20210;-69
2023/12/09 07:21:34;;;;;;;23.17;7.07;;;;;;;5.51;100.00;96079.84;5002373;28;20226;-70
2023/12/09 07:24:00;;;;;;;21.80;6.87;;;;;;;5.55;100.00;96083.81;5006080;28;20212;-69
2023/12/09 07:26:27;;;;;;;31.67;9.40;;;;;;;5.70;100.00;96077.06;5008111;28;20759;-69
2023/12/09 07:28:54;;;;;;;19.57;8.03;;;;;;;5.76;100.00;96071.28;5007065;28;20197;-69
2023/12/09 07:31:22;;;;;;;28.37;7.00;;;;;;;5.99;100.00;96072.44;4998670;28;20233;-69
2023/12/09 07:33:49;;;;;;;23.20;5.93;;;;;;;5.85;100.00;96071.19;5011716;28;20215;-68
2023/12/09 07:36:16;;;;;;;15.70;5.27;;;;;;;5.89;100.00;96063.84;5021421;28;20234;-69
2023/12/09 07:38:42;;;;;;;19.13;5.27;;;;;;;5.81;100.00;96075.06;5021937;28;20281;-69
2023/12/09 07:41:09;;;;;;;24.97;8.50;;;;;;;5.79;100.00;96071.81;5025352;28;20233;-69
2023/12/09 07:43:35;;;;;;;20.90;7.03;;;;;;;5.83;100.00;96083.59;5022884;28;20645;-69
2023/12/09 07:46:02;;;;;;;22.13;8.33;;;;;;;5.90;100.00;96083.81;5022450;28;20217;-69
2023/12/09 07:48:30;;;;;;;27.33;8.67;;;;;;;5.86;100.00;96090.31;5024344;28;20224;-68
2023/12/09 07:50:57;;;;;;;23.93;7.07;;;;;;;5.67;100.00;96093.88;5022275;28;20264;-68
2023/12/09 07:53:23;;;;;;;19.23;5.43;;;;;;;5.63;100.00;96102.19;5024959;28;20584;-68
2023/12/09 07:55:50;;;;;;;20.93;8.33;;;;;;;5.87;100.00;96098.00;5005454;28;20245;-69
2023/12/09 07:58:16;;;;;;;23.83;7.47;;;;;;;5.81;100.00;96098.59;5019836;28;20202;-69
2023/12/09 08:00:43;;;;;;;19.27;5.87;;;;;;;5.99;100.00;96104.63;5020377;28;20535;-68
2023/12/09 08:03:09;;;;;;;23.23;8.07;;;;;;;5.99;100.00;96099.38;5027127;28;20220;-68
2023/12/09 08:05:38;;;;;;;19.80;6.33;;;;;;;6.07;100.00;96105.50;5027025;28;20213;-68
2023/12/09 08:08:05;;;;;;;25.27;7.10;;;;;;;5.95;100.00;96105.09;5026332;28;20254;-69
2023/12/09 08:10:32;;;;;;;27.87;9.20;;;;;;;5.99;100.00;96099.38;5019842;28;20285;-68
2023/12/09 08:12:58;;;;;;;21.17;5.80;;;;;;;5.92;100.00;96092.31;5025776;28;20236;-69
2023/12/09 08:15:25;;;;;;;18.50;5.70;;;;;;;5.78;100.00;96100.69;5020432;28;20296;-68
2023/12/09 08:17:51;;;;;;;23.27;5.73;;;;;;;6.32;100.00;96104.69;5018218;28;20195;-67
2023/12/09 08:20:18;;;;;;;26.03;8.07;;;;;;;6.21;100.00;96115.41;5017007;28;20231;-68
2023/12/09 08:22:46;;;;;;;17.83;6.90;;;;;;;6.46;100.00;96114.56;5023672;28;20292;-69
2023/12/09 08:25:13;;;;;;;19.53;6.90;;;;;;;6.25;100.00;96106.28;5004919;28;20303;-69
2023/12/09 08:27:39;;;;;;;21.53;6.57;;;;;;;6.34;100.00;96100.13;5005306;28;20954;-69
2023/12/09 08:30:10;;;;;;;17.57;6.57;;;;;;;6.53;100.00;96086.81;5000607;28;20222;-70
2023/12/09 08:32:38;;;;;;;21.67;7.03;;;;;;;6.17;100.00;96082.69;5010645;28;20212;-69
2023/12/09 08:35:05;;;;;;;30.37;7.87;;;;;;;6.27;100.00;96083.38;5005134;28;20220;-69
2023/12/09 08:37:32;;;;;;;23.53;8.77;;;;;;;6.25;100.00;96080.13;5009294;28;20202;-70
2023/12/09 08:40:05;;;;;;;16.63;6.87;;;;;;;6.30;100.00;96077.88;5008853;28;21355;-69
2023/12/09 08:42:32;;;;;;;25.43;6.90;;;;;;;6.19;100.00;96085.97;5008336;28;20657;-69
2023/12/09 08:44:58;;;;;;;16.37;5.93;;;;;;;6.21;100.00;96081.41;5009588;28;20220;-69
2023/12/09 08:47:25;;;;;;;18.77;6.53;;;;;;;6.24;100.00;96082.91;5008940;28;20226;-69
2023/12/09 08:49:52;;;;;;;19.30;5.53;;;;;;;6.15;100.00;96068.94;5010088;28;20673;-70
2023/12/09 08:52:19;;;;;;;15.67;5.57;;;;;;;6.13;100.00;96075.28;5009219;28;20333;-69
2023/12/09 08:54:45;;;;;;;27.10;6.87;;;;;;;6.38;100.00;96067.44;5010990;28;20269;-69
2023/12/09 08:57:13;;;;;;;19.97;5.93;;;;;;;6.61;100.00;96060.69;5007907;28;20202;-69
2023/12/09 08:59:40;;;;;;;27.83;7.27;;;;;;;6.37;100.00;96067.59;5006442;28;20712;-70
2023/12/09 09:02:06;;;;;;;22.63;6.17;;;;;;;6.31;100.00;96065.59;5008266;28;20205;-69
2023/12/09 09:04:33;;;;;;;15.13;6.13;;;;;;;6.36;100.00;96061.53;5006360;28;21043;-69
2023/12/09 09:06:59;;;;;;;18.50;5.83;;;;;;;6.52;100.00;96056.38;5008032;28;21300;-68
2023/12/09 09:09:26;;;;;;;16.30;4.83;;;;;;;6.61;100.00;96044.16;5005168;28;20207;-70
2023/12/09 09:11:52;;;;;;;21.13;7.03;;;;;;;6.31;100.00;96048.13;5000395;28;21057;-68
2023/12/09 09:14:20;;;;;;;20.43;8.33;;;;;;;6.61;100.00;96047.59;5000139;28;20206;-69
2023/12/09 09:16:47;;;;;;;29.37;7.50;;;;;;;6.59;100.00;96036.44;5001070;28;20206;-69
2023/12/09 09:19:13;;;;;;;29.20;9.33;;;;;;;6.40;100.00;96047.19;4999837;28;20210;-68
2023/12/09 09:21:40;;;;;;;25.77;7.70;;;;;;;6.60;100.00;96043.31;5001774;28;20222;-69
2023/12/09 09:24:08;;;;;;;19.90;6.83;;;;;;;6.77;100.00;96042.41;5008243;28;20201;-69
2023/12/09 09:26:34;;;;;;;20.60;7.10;;;;;;;6.66;100.00;96045.31;5008154;28;20201;-70
2023/12/09 09:29:01;;;;;;;21.30;6.67;;;;;;;6.83;100.00;96044.41;5007450;28;20209;-69
2023/12/09 09:31:29;;;;;;;18.90;7.77;;;;;;;6.98;100.00;96048.03;5007583;28;20619;-70
2023/12/09 09:33:55;;;;;;;13.50;4.27;;;;;;;6.76;100.00;96044.22;5007610;28;20216;-69
2023/12/09 09:36:22;;;;;;;22.47;5.33;;;;;;;6.87;100.00;96030.00;5007477;28;20268;-70
2023/12/09 09:38:49;;;;;;;33.23;9.20;;;;;;;6.65;100.00;96033.19;4999701;28;20202;-70
2023/12/09 09:41:22;;;;;;;44.20;16.70;;;;;;;6.93;100.00;96026.75;5005296;28;20641;-70
2023/12/09 09:43:58;;;;;;;30.07;9.33;;;;;;;7.17;100.00;96017.13;5009643;28;20313;-68
2023/12/09 09:46:26;;;;;;;25.53;8.37;;;;;;;7.07;100.00;96007.78;5006296;28;20661;-70
2023/12/09 09:48:56;;;;;;;20.90;6.77;;;;;;;7.34;100.00;96003.06;5004777;28;20238;-70
2023/12/09 09:51:28;;;;;;;25.40;6.77;;;;;;;7.22;100.00;95993.88;5004901;28;20956;-70
2023/12/09 09:54:05;;;;;;;20.67;5.63;;;;;;;7.33;100.00;95993.56;5010091;28;20280;-69
2023/12/09 09:56:33;;;;;;;17.23;5.17;;;;;;;7.17;100.00;95990.13;5008332;28;20284;-70
2023/12/09 09:58:59;;;;;;;22.87;6.77;;;;;;;7.14;100.00;95982.56;4999301;28;20304;-69
2023/12/09 10:01:28;;;;;;;19.90;6.77;;;;;;;7.36;100.00;95980.13;5002056;28;20223;-69
2023/12/09 10:03:56;;;;;;;17.73;7.00;;;;;;;7.47;100.00;95982.41;5008314;28;20206;-70
2023/12/09 10:06:25;;;;;;;15.60;5.30;;;;;;;7.24;100.00;95980.63;5006654;28;20225;-70
2023/12/09 10:08:51;;;;;;;16.53;4.77;;;;;;;7.13;100.00;95973.06;4999128;28;20231;-71
2023/12/09 10:11:18;;;;;;;14.20;6.63;;;;;;;7.18;100.00;95976.03;5006810;28;20236;-70
2023/12/09 10:13:45;;;;;;;14.30;5.63;;;;;;;7.09;100.00;95966.50;5004180;28;20206;-70
2023/12/09 10:16:11;;;;;;;18.23;6.43;;;;;;;7.26;100.00;95968.19;5007034;28;20218;-70
2023/12/09 10:18:38;;;;;;;15.27;5.83;;;;;;;7.26;100.00;95960.31;4998932;28;20209;-69
2023/12/09 10:21:08;;;;;;;16.90;5.80;;;;;;;7.51;100.00;95958.34;4998987;28;20232;-70
2023/12/09 10:23:37;;;;;;;15.73;4.43;;;;;;;7.21;100.00;95955.56;4998898;28;20217;-70
2023/12/09 10:26:04;;;;;;;17.03;6.03;;;;;;;7.36;100.00;95952.13;4998803;28;20210;-68
2023/12/09 10:28:31;;;;;;;17.23;4.67;;;;;;;7.40;100.00;95942.94;4999952;28;20226;-71
2023/12/09 10:30:58;;;;;;;14.90;5.97;;;;;;;7.43;100.00;95949.66;4998690;28;20234;-71
2023/12/09 10:33:25;;;;;;;11.60;5.00;;;;;;;7.23;100.00;95952.78;4998339;28;20206;-70
2023/12/09 10:35:52;;;;;;;23.00;6.43;;;;;;;7.27;100.00;95957.53;5005435;28;20214;-71
2023/12/09 10:38:20;;;;;;;12.73;5.07;;;;;;;7.45;100.00;95932.78;5010695;28;20202;-71
2023/12/09 10:40:46;;;;;;;16.47;5.70;;;;;;;7.13;100.00;95936.38;5006173;28;20222;-71
2023/12/09 10:43:14;;;;;;;19.97;6.50;;;;;;;7.30;100.00;95934.41;5006680;28;20740;-70
2023/12/09 10:45:40;;;;;;;15.73;6.30;;;;;;;7.26;100.00;95930.50;5014711;28;20213;-68
2023/12/09 10:48:07;;;;;;;20.42;6.85;;;;;;;7.26;100.00;95926.25;5017349;28;20967;-69
2023/12/09 10:50:37;;;;;;;18.10;6.83;;;;;;;7.46;100.00;95910.03;5023088;28;20225;-69
2023/12/09 10:53:04;;;;;;;17.80;6.20;;;;;;;7.47;100.00;95906.41;5010238;28;20210;-70
2023/12/09 10:55:32;;;;;;;19.33;6.50;;;;;;;7.85;100.00;95903.06;5004266;28;20325;-70
2023/12/09 10:57:59;;;;;;;15.07;5.90;;;;;;;7.44;100.00;95898.88;5004657;28;20202;-70
2023/12/09 11:00:26;;;;;;;15.70;7.07;;;;;;;7.67;100.00;95894.56;5010168;28;20233;-70
2023/12/09 11:02:53;;;;;;;14.27;5.90;;;;;;;7.59;100.00;95884.91;5009499;28;20282;-70
2023/12/09 11:05:21;;;;;;;21.03;7.60;;;;;;;7.63;100.00;95878.34;5005617;28;21131;-70
2023/12/09 11:07:48;;;;;;;20.87;7.60;;;;;;;7.70;100.00;95883.75;5012931;28;20237;-70
2023/12/09 11:10:16;;;;;;;20.33;7.23;;;;;;;7.82;100.00;95893.72;5007594;28;20576;-69
2023/12/09 11:12:44;;;;;;;16.33;7.07;;;;;;;7.93;100.00;95882.88;5005064;28;20195;-69
2023/12/09 11:15:19;;;;;;;23.33;8.57;;;;;;;7.69;100.00;95868.97;5008097;28;20637;-69
2023/12/09 11:17:47;;;;;;;23.73;7.97;;;;;;;7.80;100.00;95856.31;5027379;28;20296;-69
2023/12/09 11:20:15;;;;;;;21.13;9.47;;;;;;;7.96;100.00;95838.72;5023430;28;20305;-69
2023/12/09 11:22:43;;;;;;;18.17;7.50;;;;;;;7.59;100.00;95840.34;5020256;28;20234;-69
2023/12/09 11:25:12;;;;;;;14.70;5.97;;;;;;;7.84;100.00;95834.03;5021963;28;20213;-69